Time;durP1;ratioP1;P1;durP2;ratioP2;P2;SDS_P1;SDS_P2;PMS_P1;PMS_P2;Temp;Humidity;BMP_temperature;BMP_pressure;BME280_temperature;BME280_humidity;BME280_pressure;Samples;Min_cycle;Max_cycle;Signal;HPM_P1;HPM_P2
2024/02/24 00:00:24;;;;;;;4.65;2.42;;;;;;;7.39;71.77;98264.75;10408490;28;20132;-63
2024/02/24 00:05:26;;;;;;;4.82;2.42;;;;;;;7.40;72.20;98269.06;10396648;28;20259;-62
2024/02/24 00:10:28;;;;;;;5.00;2.05;;;;;;;7.27;72.27;98268.63;10401288;28;20037;-63
2024/02/24 00:15:30;;;;;;;3.83;2.03;;;;;;;7.21;72.91;98279.81;10398039;28;20094;-63
2024/02/24 00:20:31;;;;;;;6.10;1.95;;;;;;;7.26;73.21;98282.81;10412652;28;20049;-62
2024/02/24 00:25:34;;;;;;;3.90;1.75;;;;;;;7.22;72.80;98269.06;10405841;28;20056;-63
2024/02/24 00:30:36;;;;;;;4.55;2.30;;;;;;;7.21;72.75;98269.22;10404912;28;20057;-64
2024/02/24 00:35:39;;;;;;;5.40;2.20;;;;;;;7.25;73.04;98271.41;10414468;28;20153;-61
2024/02/24 00:40:42;;;;;;;4.90;1.70;;;;;;;7.17;73.04;98270.50;10400984;28;20049;-62
2024/02/24 00:45:44;;;;;;;5.35;2.05;;;;;;;7.22;73.57;98284.94;10407427;28;20264;-62
2024/02/24 00:50:45;;;;;;;4.95;1.80;;;;;;;7.26;73.40;98291.59;10395119;28;20076;-63
2024/02/24 00:55:47;;;;;;;4.95;1.98;;;;;;;7.30;74.25;98289.47;10402581;28;20041;-62
2024/02/24 01:00:49;;;;;;;3.38;2.10;;;;;;;7.20;74.03;98275.50;10399726;28;20504;-62
2024/02/24 01:05:51;;;;;;;4.20;2.20;;;;;;;7.30;73.82;98305.38;10389616;28;20052;-63
2024/02/24 01:10:52;;;;;;;4.55;2.13;;;;;;;7.26;74.71;98286.28;10406738;28;20056;-63
2024/02/24 01:15:54;;;;;;;3.70;2.03;;;;;;;7.33;74.36;98291.00;10394586;28;20124;-63
2024/02/24 01:20:56;;;;;;;5.88;2.50;;;;;;;7.09;74.52;98247.44;10399987;28;20052;-63
2024/02/24 01:25:57;;;;;;;6.80;2.15;;;;;;;7.20;74.19;98281.59;10396452;28;20646;-64
2024/02/24 01:30:59;;;;;;;7.10;3.03;;;;;;;7.28;74.41;98299.41;10408170;28;20143;-63
2024/02/24 01:36:00;;;;;;;5.05;2.10;;;;;;;7.25;74.66;98307.59;10396576;28;20056;-63
2024/02/24 01:41:02;;;;;;;5.45;1.92;;;;;;;7.29;75.09;98305.50;10411039;28;20502;-63
2024/02/24 01:46:06;;;;;;;3.35;1.77;;;;;;;7.26;74.12;98298.69;10402300;28;20448;-63
2024/02/24 01:51:14;;;;;;;4.07;2.35;;;;;;;7.28;75.27;98291.47;10397616;28;20083;-64
2024/02/24 01:56:17;;;;;;;4.78;2.33;;;;;;;7.33;74.46;98302.41;10406817;28;20233;-62
2024/02/24 02:01:19;;;;;;;4.57;1.83;;;;;;;7.36;74.84;98306.59;10400845;28;20434;-63
2024/02/24 02:06:22;;;;;;;4.38;2.03;;;;;;;7.43;74.14;98310.28;10398355;28;20060;-62
2024/02/24 02:11:24;;;;;;;2.80;2.15;;;;;;;7.32;73.00;98307.84;10400316;28;20701;-64
2024/02/24 02:16:25;;;;;;;4.50;2.05;;;;;;;7.38;73.90;98309.91;10399590;28;20082;-63
2024/02/24 02:21:31;;;;;;;6.38;2.40;;;;;;;7.38;73.25;98305.44;10393065;28;20490;-62
2024/02/24 02:26:33;;;;;;;4.57;2.53;;;;;;;7.43;73.76;98310.28;10403395;28;20683;-62
2024/02/24 02:31:34;;;;;;;5.13;1.85;;;;;;;7.49;73.19;98311.47;10404421;28;20051;-62
2024/02/24 02:36:35;;;;;;;3.83;1.90;;;;;;;7.36;72.63;98307.41;10403362;28;20052;-61
2024/02/24 02:41:37;;;;;;;5.28;2.17;;;;;;;7.34;72.82;98309.38;10399051;28;20048;-61
2024/02/24 02:46:39;;;;;;;6.93;2.25;;;;;;;7.39;72.82;98317.69;10401377;28;20135;-61
2024/02/24 02:51:43;;;;;;;3.97;1.70;;;;;;;7.46;72.75;98317.09;10397611;28;20045;-62
2024/02/24 02:56:45;;;;;;;4.13;1.80;;;;;;;7.48;72.93;98321.25;10392808;28;20618;-62
2024/02/24 03:01:48;;;;;;;3.45;2.00;;;;;;;7.48;72.20;98320.44;10392120;28;20072;-63
2024/02/24 03:06:50;;;;;;;4.20;2.15;;;;;;;7.52;72.71;98327.91;10389798;28;20085;-62
2024/02/24 03:11:51;;;;;;;3.25;2.45;;;;;;;7.46;73.70;98320.59;10396889;28;20083;-62
2024/02/24 03:16:54;;;;;;;6.88;2.67;;;;;;;7.39;73.68;98333.56;10400961;28;20187;-61
2024/02/24 03:21:56;;;;;;;4.03;2.83;;;;;;;7.36;73.98;98343.63;10405911;28;20176;-63
2024/02/24 03:27:03;;;;;;;3.40;2.47;;;;;;;7.35;74.12;98331.38;10400291;28;20128;-63
2024/02/24 03:32:05;;;;;;;4.70;2.88;;;;;;;7.31;73.40;98338.81;10402761;28;20534;-63
2024/02/24 03:37:07;;;;;;;3.50;1.55;;;;;;;7.32;73.97;98344.91;10400324;28;20049;-63
2024/02/24 03:42:09;;;;;;;2.35;1.52;;;;;;;7.30;74.46;98354.81;10397583;28;20074;-63
2024/02/24 03:47:11;;;;;;;3.92;1.55;;;;;;;7.28;74.82;98351.47;10403089;28;20116;-61
2024/02/24 03:52:13;;;;;;;3.28;1.92;;;;;;;7.25;75.19;98357.91;10404826;28;20724;-62
2024/02/24 03:57:14;;;;;;;2.40;1.15;;;;;;;7.12;75.44;98354.78;10404618;28;20056;-63
2024/02/24 04:02:16;;;;;;;2.58;1.20;;;;;;;7.14;76.01;98342.25;10397917;28;20597;-61
2024/02/24 04:07:18;;;;;;;3.72;1.35;;;;;;;7.16;76.47;98359.66;10413237;28;20056;-62
2024/02/24 04:12:20;;;;;;;1.98;1.20;;;;;;;7.11;76.92;98358.41;10398266;28;20076;-64
2024/02/24 04:17:21;;;;;;;1.98;1.33;;;;;;;7.06;77.54;98369.44;10406925;28;20266;-63
2024/02/24 04:22:23;;;;;;;4.43;1.23;;;;;;;7.01;77.16;98361.09;10407224;28;20171;-63
2024/02/24 04:27:24;;;;;;;3.13;1.30;;;;;;;7.08;77.84;98381.53;10402584;28;20139;-62
2024/02/24 04:32:27;;;;;;;2.72;1.55;;;;;;;7.05;77.91;98373.88;10405328;28;20667;-62
2024/02/24 04:37:30;;;;;;;2.13;1.42;;;;;;;7.04;78.37;98376.66;10403879;28;20554;-63
2024/02/24 04:42:32;;;;;;;2.50;1.30;;;;;;;6.91;78.84;98377.03;10369190;28;20041;-63
2024/02/24 04:47:36;;;;;;;3.67;1.42;;;;;;;6.66;79.27;98352.91;10405763;28;20055;-62
2024/02/24 04:52:38;;;;;;;2.22;0.95;;;;;;;6.71;79.99;98361.25;10401966;28;20148;-62
2024/02/24 04:57:39;;;;;;;2.70;1.52;;;;;;;6.68;80.95;98365.97;10394945;28;20169;-62
2024/02/24 05:02:40;;;;;;;2.53;0.85;;;;;;;6.79;81.53;98386.13;10387263;28;20145;-63
2024/02/24 05:07:42;;;;;;;4.30;1.00;;;;;;;6.76;81.74;98397.00;10403945;28;20053;-63
2024/02/24 05:12:51;;;;;;;1.83;0.60;;;;;;;6.68;82.79;98403.84;10405771;28;20164;-62
2024/02/24 05:17:52;;;;;;;2.25;0.85;;;;;;;6.75;82.35;98413.84;10398328;28;20903;-64
2024/02/24 05:22:54;;;;;;;2.35;1.25;;;;;;;6.75;82.56;98413.84;10397525;28;20120;-63
2024/02/24 05:27:56;;;;;;;4.05;0.85;;;;;;;6.75;82.69;98421.78;10396028;28;20074;-60
2024/02/24 05:33:00;;;;;;;;;;;;;;;6.68;83.03;98398.56;10401478;28;20045;-64
2024/02/24 05:38:02;;;;;;;2.00;1.00;;;;;;;6.68;83.24;98395.06;10397727;28;19937;-61
2024/02/24 05:43:04;;;;;;;1.83;0.95;;;;;;;6.54;83.90;98407.78;10397939;28;20142;-62
2024/02/24 05:48:05;;;;;;;1.63;0.70;;;;;;;6.49;84.32;98425.03;10388609;28;20108;-62
2024/02/24 05:53:07;;;;;;;2.30;0.95;;;;;;;6.53;84.73;98453.69;10401635;28;20590;-63
2024/02/24 05:58:12;;;;;;;;;;;;;;;6.56;85.16;98452.56;10393935;28;20067;-64
2024/02/24 06:03:16;;;;;;;1.33;1.00;;;;;;;6.66;85.23;98448.06;10399323;28;19924;-61
2024/02/24 06:08:18;;;;;;;2.92;1.00;;;;;;;6.71;85.14;98453.78;10395515;28;20055;-68
2024/02/24 06:13:20;;;;;;;3.10;1.20;;;;;;;6.70;84.92;98456.56;10394195;28;20059;-67
2024/02/24 06:18:23;;;;;;;1.63;0.98;;;;;;;6.76;85.26;98460.47;10388766;28;23913;-67
2024/02/24 06:23:25;;;;;;;1.95;1.10;;;;;;;6.68;85.35;98469.94;10403569;28;20048;-66
2024/02/24 06:28:27;;;;;;;2.15;0.98;;;;;;;6.75;84.74;98448.22;10398922;28;20057;-65
2024/02/24 06:33:30;;;;;;;2.85;1.08;;;;;;;6.84;84.81;98473.78;10373883;28;20058;-67
2024/02/24 06:38:32;;;;;;;1.48;1.00;;;;;;;6.82;84.87;98483.69;10396744;28;20045;-68
2024/02/24 06:43:33;;;;;;;2.30;1.00;;;;;;;6.77;85.09;98492.06;10393171;28;20720;-67
2024/02/24 06:48:34;;;;;;;1.10;0.60;;;;;;;6.73;85.02;98494.13;10372507;28;20135;-67
2024/02/24 06:53:37;;;;;;;0.98;0.70;;;;;;;6.62;85.80;98496.94;10408581;28;20053;-67
2024/02/24 06:58:38;;;;;;;0.90;0.40;;;;;;;6.70;85.92;98512.94;10384152;28;20053;-67
2024/02/24 07:03:40;;;;;;;2.92;0.52;;;;;;;6.71;85.61;98509.31;10379467;28;20041;-68
2024/02/24 07:08:45;;;;;;;1.73;0.55;;;;;;;6.69;86.05;98521.00;10385880;28;20235;-67
2024/02/24 07:13:47;;;;;;;1.75;0.60;;;;;;;6.67;85.42;98512.38;10396321;28;20383;-68
2024/02/24 07:18:48;;;;;;;0.98;0.47;;;;;;;6.75;85.50;98531.00;10402126;28;20052;-67
2024/02/24 07:23:51;;;;;;;1.42;0.68;;;;;;;6.73;86.34;98539.09;10398802;28;20494;-69
2024/02/24 07:28:53;;;;;;;2.45;0.82;;;;;;;6.65;86.81;98536.34;10401720;28;20049;-66
2024/02/24 07:33:57;;;;;;;1.52;0.70;;;;;;;6.73;87.15;98557.59;10390530;28;20053;-68
2024/02/24 07:38:59;;;;;;;1.50;0.75;;;;;;;6.68;87.56;98562.50;10394904;28;20095;-67
2024/02/24 07:44:00;;;;;;;0.90;0.60;;;;;;;6.64;87.88;98558.44;10388691;28;20065;-67
2024/02/24 07:49:06;;;;;;;0.70;0.40;;;;;;;6.62;89.27;98584.19;10396028;28;20505;-67
2024/02/24 07:54:08;;;;;;;0.50;0.30;;;;;;;6.54;90.77;98597.25;10369835;28;20063;-67
2024/02/24 07:59:09;;;;;;;0.35;0.20;;;;;;;6.58;91.91;98597.84;10406164;28;20071;-65
2024/02/24 08:04:11;;;;;;;0.80;0.20;;;;;;;6.48;92.26;98603.09;10395611;28;20053;-65
2024/02/24 08:09:12;;;;;;;1.45;0.20;;;;;;;6.31;93.03;98592.25;10390055;28;20045;-66
2024/02/24 08:14:14;;;;;;;0.65;0.10;;;;;;;6.24;94.05;98596.38;10392596;28;20048;-67
2024/02/24 08:19:15;;;;;;;1.58;0.28;;;;;;;6.27;94.79;98600.56;10395894;28;20079;-66
2024/02/24 08:24:17;;;;;;;1.30;0.20;;;;;;;6.42;95.13;98615.06;10389436;28;20049;-67
2024/02/24 08:29:18;;;;;;;1.10;0.28;;;;;;;6.60;95.58;98607.28;10397067;28;20171;-67
2024/02/24 08:34:19;;;;;;;0.60;0.20;;;;;;;6.75;93.87;98622.75;10395385;28;20052;-66
2024/02/24 08:39:22;;;;;;;0.95;0.17;;;;;;;6.67;93.36;98629.56;10390635;28;20057;-68
2024/02/24 08:44:23;;;;;;;0.73;0.10;;;;;;;6.62;93.11;98647.66;10400920;28;20076;-67
2024/02/24 08:49:26;;;;;;;0.30;0.10;;;;;;;6.64;94.53;98651.00;10369574;28;20060;-67
2024/02/24 08:54:28;;;;;;;0.50;0.25;;;;;;;6.53;95.71;98659.88;10407249;28;20398;-65
2024/02/24 08:59:30;;;;;;;0.73;0.32;;;;;;;6.58;96.25;98677.97;10393973;28;20076;-66
2024/02/24 09:04:31;;;;;;;1.52;0.40;;;;;;;6.54;97.46;98673.94;10403415;28;20145;-66
2024/02/24 09:09:33;;;;;;;0.95;0.40;;;;;;;6.67;95.71;98684.25;10411093;28;20052;-66
2024/02/24 09:14:35;;;;;;;0.82;0.17;;;;;;;6.67;95.27;98679.81;10392665;28;20056;-66
2024/02/24 09:19:36;;;;;;;0.57;0.25;;;;;;;6.71;95.95;98690.94;10408683;28;20060;-66
2024/02/24 09:24:38;;;;;;;0.55;0.10;;;;;;;6.56;95.13;98685.22;10400180;28;20195;-67
2024/02/24 09:29:39;;;;;;;1.63;1.02;;;;;;;6.57;97.19;98708.03;10405898;28;20522;-66
2024/02/24 09:34:43;;;;;;;0.77;0.20;;;;;;;6.59;96.55;98711.38;10403486;28;20048;-69
2024/02/24 09:39:44;;;;;;;0.47;0.20;;;;;;;6.56;95.54;98732.81;10403432;28;20075;-68
2024/02/24 09:44:46;;;;;;;0.40;0.20;;;;;;;6.46;96.00;98731.94;10396314;28;20130;-66
2024/02/24 09:49:49;;;;;;;1.52;0.40;;;;;;;6.84;94.65;98735.63;10403681;28;20091;-66
2024/02/24 09:54:52;;;;;;;0.70;0.40;;;;;;;7.11;93.03;98753.50;10401561;28;20262;-68
2024/02/24 09:59:54;;;;;;;1.35;0.43;;;;;;;7.10;91.62;98777.44;10399308;28;20082;-67
2024/02/24 10:04:58;;;;;;;0.50;0.30;;;;;;;7.01;92.75;98784.38;10396442;28;20045;-66
2024/02/24 10:10:00;;;;;;;0.47;0.30;;;;;;;7.57;90.41;98780.25;10350238;28;20049;-67
2024/02/24 10:15:05;;;;;;;0.95;0.30;;;;;;;8.42;86.24;98786.50;10404174;28;20135;-66
2024/02/24 10:20:08;;;;;;;0.82;0.25;;;;;;;8.19;82.83;98790.47;10395417;28;20636;-64
2024/02/24 10:25:10;;;;;;;0.60;0.32;;;;;;;7.70;83.24;98774.66;10393629;28;20149;-67
2024/02/24 10:30:13;;;;;;;2.67;0.70;;;;;;;7.52;81.86;98795.72;10402874;28;20220;-66
2024/02/24 10:35:15;;;;;;;0.30;0.15;;;;;;;7.57;80.49;98782.91;10396526;28;20121;-65
2024/02/24 10:40:19;;;;;;;1.10;0.45;;;;;;;8.01;81.06;98809.75;10385824;28;20063;-66
2024/02/24 10:45:21;;;;;;;1.42;0.20;;;;;;;9.05;69.34;98803.50;10375796;28;20047;-67
2024/02/24 10:50:23;;;;;;;0.40;0.13;;;;;;;8.67;68.97;98810.69;10389992;28;20045;-67
2024/02/24 10:55:26;;;;;;;0.70;0.30;;;;;;;9.12;69.24;98814.38;10404139;28;20059;-68
2024/02/24 11:00:31;;;;;;;0.40;0.10;;;;;;;9.20;66.62;98812.63;10369068;28;20055;-65
2024/02/24 11:05:34;;;;;;;0.15;0.08;;;;;;;8.94;65.95;98832.91;10398511;28;20060;-66
2024/02/24 11:10:40;;;;;;;0.20;0.17;;;;;;;9.06;64.38;98829.06;10378774;28;20125;-68
2024/02/24 11:15:41;;;;;;;0.50;0.10;;;;;;;9.11;63.30;98832.13;10386639;28;20049;-67
2024/02/24 11:20:43;;;;;;;0.93;0.20;;;;;;;8.82;64.78;98825.13;10346319;28;20584;-66
2024/02/24 11:25:44;;;;;;;0.60;0.10;;;;;;;8.47;66.15;98841.78;10358632;28;20056;-65
2024/02/24 11:30:56;;;;;;;1.83;0.30;;;;;;;8.10;66.25;98782.38;10298675;28;21522;-65
2024/02/24 11:36:00;;;;;;;0.30;0.20;;;;;;;8.46;64.00;98863.97;10395878;28;20677;-64
2024/02/24 11:41:04;;;;;;;0.20;0.03;;;;;;;8.46;62.03;98858.66;10391076;28;20499;-65
2024/02/24 11:46:05;;;;;;;1.00;0.10;;;;;;;10.12;60.42;98854.97;10383732;28;20071;-65
2024/02/24 11:51:07;;;;;;;0.43;0.20;;;;;;;12.60;49.51;98843.13;10391308;28;20122;-64
2024/02/24 11:56:08;;;;;;;0.38;0.10;;;;;;;13.33;47.83;98825.97;10395000;28;20049;-65
2024/02/24 12:01:13;;;;;;;1.30;0.30;;;;;;;13.15;49.76;98838.72;10395977;28;20060;-65
2024/02/24 12:06:17;;;;;;;0.65;0.10;;;;;;;13.91;45.55;98844.31;10397923;28;20136;-64
2024/02/24 12:11:20;;;;;;;0.47;0.10;;;;;;;13.85;44.63;98820.94;10402032;28;20087;-66
2024/02/24 12:16:23;;;;;;;0.77;0.10;;;;;;;15.35;42.19;98833.38;10379813;28;20129;-65
2024/02/24 12:21:27;;;;;;;0.47;0.40;;;;;;;16.77;38.62;98839.78;10399961;28;20091;-65
2024/02/24 12:26:29;;;;;;;0.38;0.10;;;;;;;17.19;39.39;98831.72;10403946;28;20604;-65
2024/02/24 12:31:31;;;;;;;1.38;0.20;;;;;;;17.82;37.20;98831.47;10405440;28;20046;-66
2024/02/24 12:36:32;;;;;;;0.30;0.10;;;;;;;18.51;33.47;98834.78;10406580;28;20060;-65
2024/02/24 12:41:34;;;;;;;0.88;0.05;;;;;;;19.77;32.35;98830.81;10401862;28;20052;-66
2024/02/24 12:46:36;;;;;;;0.38;0.10;;;;;;;20.63;29.29;98809.50;10402010;28;20160;-65
2024/02/24 12:51:37;;;;;;;0.75;0.10;;;;;;;21.27;29.07;98847.06;10397553;28;20059;-66
2024/02/24 12:56:39;;;;;;;0.38;0.10;;;;;;;16.07;35.38;98845.06;10401694;28;20577;-66
2024/02/24 13:01:42;;;;;;;0.52;0.10;;;;;;;13.24;40.82;98840.34;10395199;28;20060;-64
2024/02/24 13:06:43;;;;;;;0.60;0.20;;;;;;;13.06;42.14;98845.94;10397449;28;20521;-67
2024/02/24 13:11:49;;;;;;;0.70;0.20;;;;;;;12.52;42.82;98814.59;10364322;28;20080;-65
2024/02/24 13:16:52;;;;;;;0.73;0.17;;;;;;;14.04;39.80;98849.88;10398174;28;20049;-66
2024/02/24 13:21:53;;;;;;;1.50;0.10;;;;;;;11.98;43.14;98850.72;10401256;28;20106;-67
2024/02/24 13:26:54;;;;;;;1.80;0.85;;;;;;;11.51;44.80;98848.63;10394847;28;20093;-66
2024/02/24 13:31:57;;;;;;;0.47;0.20;;;;;;;11.11;46.96;98860.88;10403892;28;20132;-64
2024/02/24 13:36:59;;;;;;;1.00;0.15;;;;;;;10.85;47.65;98860.91;10409060;28;20046;-66
2024/02/24 13:42:00;;;;;;;0.38;0.10;;;;;;;10.56;47.84;98868.25;10390875;28;20045;-66
2024/02/24 13:47:02;;;;;;;3.13;0.30;;;;;;;10.43;48.05;98871.34;10383286;28;20053;-65
2024/02/24 13:52:05;;;;;;;1.00;0.20;;;;;;;10.22;49.95;98876.13;10405184;28;20079;-66
2024/02/24 13:57:07;;;;;;;0.93;0.20;;;;;;;10.29;50.64;98863.88;10403944;28;20079;-67
2024/02/24 14:02:08;;;;;;;1.33;0.45;;;;;;;10.21;51.18;98880.63;10372555;28;20116;-65
2024/02/24 14:07:11;;;;;;;1.45;0.22;;;;;;;10.03;51.53;98872.69;10393536;28;20166;-67
2024/02/24 14:12:15;;;;;;;0.50;0.10;;;;;;;9.80;52.68;98888.25;10388127;28;20545;-68
2024/02/24 14:17:17;;;;;;;0.80;0.13;;;;;;;9.55;57.42;98890.66;10407920;28;20068;-64
2024/02/24 14:22:18;;;;;;;1.30;0.20;;;;;;;9.87;62.29;98915.88;10377966;28;20056;-69
2024/02/24 14:27:20;;;;;;;1.58;0.40;;;;;;;11.95;59.12;98896.38;10392600;28;20634;-67
2024/02/24 14:32:22;;;;;;;1.80;0.40;;;;;;;13.63;53.20;98906.34;10403784;28;20128;-69
2024/02/24 14:37:23;;;;;;;1.15;0.50;;;;;;;18.31;41.10;98889.50;10405119;28;20045;-67
2024/02/24 14:42:25;;;;;;;2.33;0.75;;;;;;;21.29;33.89;98898.25;10394116;28;20721;-66
2024/02/24 14:47:28;;;;;;;1.10;0.30;;;;;;;18.37;37.25;98902.16;10374957;28;20488;-67
2024/02/24 14:52:30;;;;;;;1.88;0.52;;;;;;;15.22;41.85;98889.53;10395861;28;20167;-68
2024/02/24 14:57:32;;;;;;;0.80;0.20;;;;;;;18.17;38.39;98898.63;10405481;28;20052;-63
2024/02/24 15:02:34;;;;;;;1.23;0.22;;;;;;;15.66;39.23;98902.03;10351875;28;20483;-62
2024/02/24 15:07:55;;;;;;;0.57;0.20;;;;;;;13.14;44.92;98910.03;10389408;28;20052;-63
2024/02/24 15:12:56;;;;;;;2.03;0.20;;;;;;;12.09;46.20;98908.22;10383249;28;20058;-61
2024/02/24 15:18:02;;;;;;;2.22;0.30;;;;;;;12.08;47.23;98901.22;10390177;28;20064;-62
2024/02/24 15:23:06;;;;;;;1.50;0.40;;;;;;;12.05;47.47;98903.38;10381959;28;20143;-61
2024/02/24 15:28:07;;;;;;;1.70;0.40;;;;;;;11.61;49.14;98899.13;10390666;28;20090;-65
2024/02/24 15:33:09;;;;;;;1.63;0.20;;;;;;;11.02;50.91;98909.75;10405790;28;20044;-64
2024/02/24 15:38:10;;;;;;;1.40;0.77;;;;;;;10.93;52.33;98923.03;10404947;28;20061;-62
2024/02/24 15:43:11;;;;;;;1.73;0.40;;;;;;;10.74;52.58;98929.41;10390867;28;20051;-61
2024/02/24 15:48:13;;;;;;;2.38;0.30;;;;;;;10.50;52.96;98916.75;10398971;28;20132;-61
2024/02/24 15:53:14;;;;;;;1.42;0.40;;;;;;;10.46;53.10;98909.25;10400058;28;20064;-63
2024/02/24 15:58:16;;;;;;;0.98;0.40;;;;;;;10.38;53.46;98936.63;10397672;28;20601;-60
2024/02/24 16:03:18;;;;;;;1.05;0.30;;;;;;;10.20;53.32;98940.09;10392450;28;20585;-59
2024/02/24 16:08:19;;;;;;;1.65;0.73;;;;;;;10.16;54.49;98957.34;10392759;28;20471;-61
2024/02/24 16:13:21;;;;;;;0.57;0.30;;;;;;;9.97;55.20;98946.88;10398499;28;20060;-62
2024/02/24 16:18:22;;;;;;;1.23;0.40;;;;;;;10.02;55.60;98945.44;10387984;28;20057;-61
2024/02/24 16:23:24;;;;;;;3.20;0.88;;;;;;;9.97;56.06;98960.16;10396597;28;20057;-60
2024/02/24 16:28:26;;;;;;;1.20;0.50;;;;;;;9.96;55.60;98959.34;10398023;28;22312;-62
2024/02/24 16:33:27;;;;;;;2.42;0.82;;;;;;;9.70;56.07;98967.22;10395796;28;20052;-60
2024/02/24 16:38:30;;;;;;;3.78;1.40;;;;;;;9.70;56.85;98969.88;10396526;28;20701;-61
2024/02/24 16:43:32;;;;;;;2.13;0.90;;;;;;;9.65;56.90;98970.31;10395196;28;20063;-62
2024/02/24 16:48:33;;;;;;;2.33;1.10;;;;;;;9.64;57.35;98973.97;10390268;28;20717;-62
2024/02/24 16:53:35;;;;;;;4.70;1.35;;;;;;;9.52;57.37;98981.28;10391995;28;20139;-62
2024/02/24 16:58:37;;;;;;;2.92;1.05;;;;;;;9.47;56.82;98986.22;10400333;28;20053;-61
2024/02/24 17:03:38;;;;;;;2.33;1.00;;;;;;;9.27;56.92;98989.94;10401131;28;20129;-62
2024/02/24 17:08:41;;;;;;;1.40;1.00;;;;;;;9.19;56.73;99006.59;10397868;28;20140;-61
2024/02/24 17:13:42;;;;;;;3.03;0.93;;;;;;;9.10;57.87;99013.63;10378111;28;20075;-61
2024/02/24 17:18:44;;;;;;;2.97;1.58;;;;;;;9.13;58.23;99018.63;10355224;28;20140;-61
2024/02/24 17:23:47;;;;;;;3.88;2.50;;;;;;;9.00;58.26;99008.31;10398759;28;20083;-62
2024/02/24 17:28:50;;;;;;;2.95;1.75;;;;;;;8.84;57.75;99024.00;10404060;28;20059;-61
2024/02/24 17:33:52;;;;;;;2.85;1.38;;;;;;;8.80;58.77;99033.25;10398359;28;20087;-62
2024/02/24 17:38:53;;;;;;;3.40;0.82;;;;;;;8.68;59.23;99069.69;10402193;28;20585;-63
2024/02/24 17:43:55;;;;;;;2.38;0.63;;;;;;;8.53;60.09;99058.66;10408803;28;20070;-62
2024/02/24 17:48:58;;;;;;;2.47;0.40;;;;;;;8.25;61.13;99055.00;10392189;28;20709;-62
2024/02/24 17:54:01;;;;;;;2.08;0.68;;;;;;;8.25;61.40;99047.03;10395011;28;20053;-62
2024/02/24 17:59:02;;;;;;;0.52;0.25;;;;;;;8.22;62.32;99061.41;10386593;28;20197;-65
2024/02/24 18:04:04;;;;;;;0.88;0.25;;;;;;;8.17;62.74;99061.00;10410614;28;20156;-61
2024/02/24 18:09:05;;;;;;;1.23;0.50;;;;;;;8.09;63.22;99053.72;10399559;28;20045;-60
2024/02/24 18:14:07;;;;;;;4.43;2.25;;;;;;;8.07;63.75;99068.06;10397771;28;20136;-61
2024/02/24 18:19:09;;;;;;;0.98;0.40;;;;;;;8.00;64.59;99073.09;10399099;28;20067;-62
2024/02/24 18:24:11;;;;;;;1.60;0.50;;;;;;;7.95;64.72;99076.13;10402647;28;20083;-62
2024/02/24 18:29:13;;;;;;;1.98;0.82;;;;;;;7.88;64.55;99079.47;10381480;28;20455;-63
2024/02/24 18:34:16;;;;;;;1.48;1.20;;;;;;;7.86;63.84;99076.13;10398504;28;20055;-62
2024/02/24 18:39:17;;;;;;;2.67;1.30;;;;;;;7.88;64.36;99079.47;10394906;28;20136;-63
2024/02/24 18:44:19;;;;;;;1.73;0.73;;;;;;;7.78;64.69;99068.84;10399684;28;20045;-62
2024/02/24 18:49:21;;;;;;;1.38;0.70;;;;;;;7.72;65.00;99080.81;10394285;28;20048;-60
2024/02/24 18:54:23;;;;;;;1.35;1.08;;;;;;;7.73;65.58;99086.94;10386487;28;20060;-61
2024/02/24 18:59:24;;;;;;;0.85;0.35;;;;;;;7.62;67.00;99087.88;10394688;28;20065;-63
2024/02/24 19:04:26;;;;;;;1.10;0.47;;;;;;;7.61;68.42;99100.28;10399175;28;20693;-63
2024/02/24 19:09:28;;;;;;;1.13;0.52;;;;;;;7.59;69.61;99106.69;10406222;28;20171;-62
2024/02/24 19:14:29;;;;;;;0.95;0.35;;;;;;;7.65;70.29;99100.03;10397593;28;20609;-62
2024/02/24 19:19:30;;;;;;;0.90;0.60;;;;;;;7.66;70.74;99107.84;10389247;28;20531;-62
2024/02/24 19:24:32;;;;;;;1.88;1.00;;;;;;;7.66;71.52;99110.47;10400173;28;20174;-63
2024/02/24 19:29:33;;;;;;;1.75;1.00;;;;;;;7.69;71.49;99117.34;10398063;28;20048;-63
2024/02/24 19:34:35;;;;;;;1.98;1.38;;;;;;;7.62;72.11;99124.97;10396063;28;20059;-64
2024/02/24 19:39:37;;;;;;;1.77;1.02;;;;;;;7.67;72.27;99120.13;10395355;28;20052;-62
2024/02/24 19:44:39;;;;;;;2.15;1.00;;;;;;;7.59;72.76;99115.44;10399386;28;20689;-64
2024/02/24 19:49:43;;;;;;;2.20;1.10;;;;;;;7.53;73.36;99115.16;10399207;28;20068;-64
2024/02/24 19:54:48;;;;;;;2.38;1.00;;;;;;;7.53;73.72;99112.50;10384418;28;20053;-64
2024/02/24 19:59:49;;;;;;;4.20;1.10;;;;;;;7.64;73.74;99104.50;10398827;28;20049;-64
2024/02/24 20:04:51;;;;;;;1.65;1.00;;;;;;;7.69;72.98;99106.75;10353129;28;20354;-65
2024/02/24 20:09:52;;;;;;;2.03;0.98;;;;;;;7.67;72.92;99120.13;10385013;28;20071;-63
2024/02/24 20:14:54;;;;;;;2.15;1.25;;;;;;;7.64;73.44;99114.22;10402814;28;20056;-62
2024/02/24 20:19:56;;;;;;;3.13;1.35;;;;;;;7.61;73.27;99125.91;10394027;28;20696;-63
2024/02/24 20:24:58;;;;;;;2.78;1.13;;;;;;;7.49;73.50;99104.00;10397498;28;20049;-65
2024/02/24 20:30:01;;;;;;;1.42;0.90;;;;;;;7.59;73.41;99111.97;10398700;28;20048;-64
2024/02/24 20:35:04;;;;;;;5.88;2.22;;;;;;;7.56;73.33;99113.06;10401640;28;20076;-62
2024/02/24 20:40:08;;;;;;;1.88;1.35;;;;;;;7.55;73.58;99111.41;10408623;28;20068;-64
2024/02/24 20:45:10;;;;;;;2.88;1.20;;;;;;;7.54;73.83;99116.84;10380512;28;20094;-63
2024/02/24 20:50:12;;;;;;;2.35;1.20;;;;;;;7.43;73.87;99115.09;10415009;28;20052;-64
2024/02/24 20:55:13;;;;;;;3.10;1.30;;;;;;;7.41;74.25;99112.56;10415101;28;20176;-63
2024/02/24 21:00:15;;;;;;;2.50;1.35;;;;;;;7.47;74.56;99124.47;10417132;28;20055;-64
2024/02/24 21:05:19;;;;;;;2.60;1.27;;;;;;;7.47;74.02;99107.75;10425304;28;20047;-62
2024/02/24 21:10:22;;;;;;;2.35;1.40;;;;;;;7.42;73.59;99114.25;10400746;28;20175;-62
2024/02/24 21:15:24;;;;;;;9.85;6.15;;;;;;;7.46;73.71;99121.94;10401072;28;20390;-63
2024/02/24 21:20:25;;;;;;;6.68;4.57;;;;;;;7.49;74.08;99134.91;10402530;28;20048;-65
2024/02/24 21:25:29;;;;;;;5.30;3.30;;;;;;;7.43;74.08;99113.31;10403768;28;20057;-61
2024/02/24 21:30:30;;;;;;;4.10;2.65;;;;;;;7.16;73.97;99089.16;10397908;28;20087;-63
2024/02/24 21:35:34;;;;;;;4.13;3.50;;;;;;;7.32;74.46;99110.72;10394657;28;20498;-63
2024/02/24 21:40:36;;;;;;;5.13;3.57;;;;;;;7.40;74.40;99116.22;10397903;28;20049;-64
2024/02/24 21:45:39;;;;;;;6.25;3.97;;;;;;;7.37;74.17;99113.84;10407305;28;20425;-63
2024/02/24 21:50:43;;;;;;;6.80;3.58;;;;;;;7.33;74.36;99109.75;10394030;28;20123;-63
2024/02/24 21:55:45;;;;;;;3.95;3.22;;;;;;;7.21;74.20;99111.63;10395018;28;20647;-64
2024/02/24 22:00:46;;;;;;;4.47;3.28;;;;;;;7.18;74.38;99108.44;10387604;28;20891;-65
2024/02/24 22:05:50;;;;;;;5.63;4.95;;;;;;;7.17;75.54;99114.69;10395110;28;20067;-63
2024/02/24 22:10:52;;;;;;;6.78;6.00;;;;;;;7.18;76.01;99116.38;10381483;28;20073;-63
2024/02/24 22:15:55;;;;;;;8.73;6.32;;;;;;;7.03;75.85;99103.44;10400601;28;20074;-62
2024/02/24 22:20:57;;;;;;;4.38;3.65;;;;;;;7.04;75.00;99110.44;10400399;28;20140;-63
2024/02/24 22:25:58;;;;;;;4.55;3.95;;;;;;;7.00;75.02;99109.00;10397091;28;20131;-63
2024/02/24 22:31:01;;;;;;;7.47;4.70;;;;;;;7.02;75.51;99115.00;10387875;28;20711;-62
2024/02/24 22:36:04;;;;;;;5.30;4.20;;;;;;;6.98;75.62;99112.72;10394226;28;20059;-62
2024/02/24 22:41:07;;;;;;;5.40;4.10;;;;;;;6.89;75.31;99109.03;10398376;28;20139;-63
2024/02/24 22:46:09;;;;;;;5.30;4.50;;;;;;;6.98;75.54;99102.16;10403286;28;20110;-63
2024/02/24 22:51:10;;;;;;;5.30;4.57;;;;;;;7.01;75.14;99112.47;10391926;28;20723;-66
2024/02/24 22:56:12;;;;;;;5.90;4.15;;;;;;;6.97;75.86;99111.91;10398026;28;20049;-62
2024/02/24 23:01:16;;;;;;;5.22;4.55;;;;;;;6.88;75.97;99102.09;10402898;28;20053;-64
2024/02/24 23:06:18;;;;;;;5.05;4.55;;;;;;;6.90;76.13;99100.16;10399895;28;20147;-63
2024/02/24 23:11:19;;;;;;;4.85;4.35;;;;;;;6.97;75.98;99105.78;10382403;28;20045;-64
2024/02/24 23:16:36;;;;;;;5.07;4.20;;;;;;;6.86;75.61;99096.06;10386374;28;20059;-64
2024/02/24 23:21:40;;;;;;;5.05;3.85;;;;;;;6.84;75.65;99111.25;10392513;28;20132;-62
2024/02/24 23:26:41;;;;;;;4.50;3.55;;;;;;;6.82;75.58;99107.91;10367525;28;20060;-63
2024/02/24 23:31:45;;;;;;;6.07;4.37;;;;;;;6.82;75.19;99107.91;10395013;28;20609;-62
2024/02/24 23:36:48;;;;;;;5.18;4.50;;;;;;;6.71;74.93;99101.69;10385210;28;20156;-63